Time;durP1;ratioP1;P1;durP2;ratioP2;P2;SDS_P1;SDS_P2;PMS_P1;PMS_P2;Temp;Humidity;BMP_temperature;BMP_pressure;BME280_temperature;BME280_humidity;BME280_pressure;Samples;Min_cycle;Max_cycle;Signal;HPM_P1;HPM_P2
2022/09/21 00:00:44;;;;;;;15.88;6.68;;;;;;;10.46;100.00;102611.78;6176865;23;20336;-93
2022/09/21 00:03:09;;;;;;;12.25;6.55;;;;;;;10.56;100.00;102630.00;6176188;23;20025;-93
2022/09/21 00:05:35;;;;;;;17.05;7.00;;;;;;;10.40;100.00;102606.56;6152412;23;20008;-94
2022/09/21 00:08:03;;;;;;;12.80;6.20;;;;;;;10.47;100.00;102616.09;6153353;23;20001;-93
2022/09/21 00:10:29;;;;;;;11.75;6.50;;;;;;;10.46;100.00;102619.53;6175898;23;20029;-94
2022/09/21 00:12:56;;;;;;;13.80;6.82;;;;;;;10.40;100.00;102615.19;6177086;23;20456;-94
2022/09/21 00:15:22;;;;;;;10.85;6.47;;;;;;;10.32;100.00;102609.09;6153054;23;20428;-94
2022/09/21 00:17:52;;;;;;;12.93;6.60;;;;;;;10.35;100.00;102611.72;6175885;23;20005;-93
2022/09/21 00:20:18;;;;;;;12.35;6.18;;;;;;;10.37;100.00;102616.94;6152800;23;20001;-93
2022/09/21 00:22:45;;;;;;;14.77;6.45;;;;;;;10.41;100.00;102624.72;6152106;23;20005;-93
2022/09/21 00:25:11;;;;;;;11.77;6.30;;;;;;;10.29;100.00;102609.09;6173094;23;19997;-94
2022/09/21 00:27:36;;;;;;;14.00;6.32;;;;;;;10.22;100.00;102600.44;6152497;23;20544;-92
2022/09/21 00:30:03;;;;;;;12.52;6.13;;;;;;;10.29;100.00;102625.53;6152575;23;20005;-95
2022/09/21 00:32:30;;;;;;;13.27;6.38;;;;;;;10.08;99.58;102599.44;6150258;23;20515;-93
2022/09/21 00:34:57;;;;;;;13.77;6.45;;;;;;;10.06;100.00;102597.69;6152399;23;20001;-94
2022/09/21 00:37:23;;;;;;;11.32;5.78;;;;;;;10.17;100.00;102621.97;6150008;23;20436;-92
2022/09/21 00:39:49;;;;;;;11.07;6.35;;;;;;;10.12;100.00;102624.50;6152076;23;20001;-94
2022/09/21 00:42:21;;;;;;;11.98;6.45;;;;;;;9.94;100.00;102600.19;6174054;23;20334;-94
2022/09/21 00:44:47;;;;;;;11.27;5.97;;;;;;;9.97;100.00;102614.03;6175737;23;20006;-93
2022/09/21 00:47:15;;;;;;;14.80;6.15;;;;;;;9.91;100.00;102622.63;6174069;23;20037;-94
2022/09/21 00:49:44;;;;;;;9.77;6.03;;;;;;;9.82;100.00;102616.53;6151422;23;20012;-94
2022/09/21 00:52:13;;;;;;;12.27;6.47;;;;;;;9.83;100.00;102626.00;6175346;23;20013;-93
2022/09/21 00:55:02;;;;;;;13.38;6.50;;;;;;;9.76;100.00;102629.38;6152522;23;20005;-92
2022/09/21 00:57:30;;;;;;;10.35;6.32;;;;;;;9.67;100.00;102627.63;6151029;23;20009;-93
2022/09/21 01:00:00;;;;;;;14.38;6.57;;;;;;;9.62;100.00;102628.44;6174716;23;20031;-91
2022/09/21 01:02:26;;;;;;;11.32;6.68;;;;;;;9.51;100.00;102620.56;6151398;23;20005;-91
2022/09/21 01:04:55;;;;;;;13.65;6.28;;;;;;;9.49;100.00;102633.47;6151717;23;20005;-90
2022/09/21 01:07:26;;;;;;;12.52;6.35;;;;;;;9.50;100.00;102636.94;6149489;23;20010;-90
2022/09/21 01:09:57;;;;;;;10.65;6.15;;;;;;;9.43;100.00;102624.78;6146612;23;20055;-93
2022/09/21 01:13:00;;;;;;;13.45;6.20;;;;;;;9.42;100.00;102631.69;6151838;23;20005;-95
2022/09/21 01:15:28;;;;;;;13.38;6.38;;;;;;;9.37;100.00;102638.53;6152214;23;20517;-94
2022/09/21 01:18:52;;;;;;;11.57;6.88;;;;;;;9.26;100.00;102614.28;6151645;23;20371;-93
2022/09/21 01:21:22;;;;;;;13.43;6.72;;;;;;;9.33;100.00;102634.19;6004022;23;20015;-93
2022/09/21 01:23:59;;;;;;;15.77;6.93;;;;;;;9.18;100.00;102623.69;6004493;23;20011;-92
2022/09/21 01:26:53;;;;;;;11.57;6.43;;;;;;;9.27;100.00;102636.72;6084497;23;20006;-93
2022/09/21 01:29:33;;;;;;;13.63;6.85;;;;;;;9.20;100.00;102622.00;6125751;23;20009;-94
2022/09/21 01:32:11;;;;;;;11.48;6.32;;;;;;;9.26;100.00;102629.81;6150608;23;20092;-93
2022/09/21 01:34:50;;;;;;;11.05;6.10;;;;;;;9.05;100.00;102614.94;6152374;23;20083;-93
2022/09/21 01:37:20;;;;;;;12.38;6.45;;;;;;;9.10;100.00;102630.47;6152537;23;20044;-92
2022/09/21 01:39:51;;;;;;;15.13;6.50;;;;;;;9.16;100.00;102632.25;6152214;23;20117;-93
2022/09/21 01:42:20;;;;;;;14.48;6.45;;;;;;;9.08;100.00;102614.06;6126624;23;20075;-93
2022/09/21 01:44:48;;;;;;;15.02;6.95;;;;;;;9.18;100.00;102633.16;6149896;23;20012;-94
2022/09/21 01:47:18;;;;;;;15.40;6.85;;;;;;;9.13;100.00;102625.34;6152998;23;20025;-94
2022/09/21 01:49:49;;;;;;;12.38;6.82;;;;;;;9.20;100.00;102639.22;6126495;23;20029;-94
2022/09/21 01:52:23;;;;;;;16.13;6.60;;;;;;;9.12;100.00;102626.22;6125672;23;20405;-93
2022/09/21 01:54:55;;;;;;;11.68;6.88;;;;;;;9.13;100.00;102624.50;6126228;23;20096;-94
2022/09/21 01:57:44;;;;;;;11.93;6.57;;;;;;;9.25;100.00;102637.56;6126516;23;20008;-94
2022/09/21 02:00:10;;;;;;;14.50;7.60;;;;;;;9.17;100.00;102624.53;6150049;23;20040;-90
2022/09/21 02:02:49;;;;;;;15.85;7.28;;;;;;;9.21;100.00;102625.44;6151932;23;20005;-91
2022/09/21 02:05:19;;;;;;;16.02;6.70;;;;;;;9.14;100.00;102614.16;6125530;23;20009;-90
2022/09/21 02:07:45;;;;;;;12.30;6.82;;;;;;;9.16;100.00;102622.78;6151731;23;20033;-91
2022/09/21 02:10:19;;;;;;;12.35;6.90;;;;;;;9.20;100.00;102623.69;6152358;23;20017;-90
2022/09/21 02:12:45;;;;;;;13.40;7.30;;;;;;;9.29;100.00;102640.19;6174436;23;20084;-90
2022/09/21 02:15:13;;;;;;;12.88;6.88;;;;;;;9.21;100.00;102630.63;6151421;23;20025;-90
2022/09/21 02:18:06;;;;;;;16.85;7.00;;;;;;;9.25;100.00;102634.97;6150847;23;20016;-90
2022/09/21 02:20:39;;;;;;;14.80;6.82;;;;;;;9.17;100.00;102626.25;6151649;23;20002;-89
2022/09/21 02:23:13;;;;;;;14.05;6.95;;;;;;;9.13;100.00;102627.94;6150622;23;20016;-90
2022/09/21 02:25:39;;;;;;;15.68;6.85;;;;;;;9.16;100.00;102640.91;6149110;23;20001;-90
2022/09/21 02:28:12;;;;;;;13.10;6.55;;;;;;;9.08;100.00;102629.59;6151812;23;20377;-91
2022/09/21 02:30:39;;;;;;;12.45;6.57;;;;;;;9.02;100.00;102622.63;6150486;23;20478;-93
2022/09/21 02:33:11;;;;;;;15.05;7.07;;;;;;;9.05;100.00;102637.34;6152150;23;20005;-94
2022/09/21 02:35:50;;;;;;;13.70;7.03;;;;;;;9.02;100.00;102637.28;6152124;23;20009;-94
2022/09/21 02:38:43;;;;;;;16.70;7.18;;;;;;;9.01;100.00;102644.19;6175644;23;20392;-93
2022/09/21 02:41:18;;;;;;;12.80;7.07;;;;;;;8.98;100.00;102638.97;6152322;23;20009;-93
2022/09/21 02:43:53;;;;;;;12.70;6.88;;;;;;;8.79;100.00;102610.31;6151592;23;19997;-93
2022/09/21 02:46:27;;;;;;;14.93;7.00;;;;;;;8.76;100.00;102610.25;6151493;23;20435;-94
2022/09/21 02:49:01;;;;;;;12.50;7.00;;;;;;;8.71;100.00;102607.63;6153504;23;20002;-93
2022/09/21 02:51:37;;;;;;;13.57;7.03;;;;;;;8.78;100.00;102626.66;6177037;23;20009;-92
2022/09/21 02:54:09;;;;;;;13.13;7.07;;;;;;;8.73;100.00;102620.56;6151697;23;20125;-93
2022/09/21 02:56:36;;;;;;;15.43;6.95;;;;;;;8.68;100.00;102623.94;6177579;23;20006;-94
2022/09/21 02:59:04;;;;;;;13.10;6.75;;;;;;;8.62;100.00;102623.88;6152660;23;20089;-90
2022/09/21 03:01:31;;;;;;;15.63;7.53;;;;;;;8.59;100.00;102621.28;6176722;23;20447;-90
2022/09/21 03:03:57;;;;;;;15.02;7.78;;;;;;;8.59;100.00;102630.75;6175998;23;20462;-91
2022/09/21 03:06:28;;;;;;;13.60;7.38;;;;;;;8.53;100.00;102620.31;6176214;23;20479;-91
2022/09/21 03:08:57;;;;;;;12.35;6.82;;;;;;;8.52;100.00;102624.63;6176308;23;20466;-90
2022/09/21 03:11:23;;;;;;;15.63;7.65;;;;;;;8.52;100.00;102632.38;6175633;23;20092;-90
2022/09/21 03:13:48;;;;;;;13.50;6.78;;;;;;;8.49;100.00;102634.03;6150879;23;20112;-90
2022/09/21 03:16:13;;;;;;;14.27;7.50;;;;;;;8.35;100.00;102618.34;6153579;23;20001;-90
2022/09/21 03:18:41;;;;;;;14.45;7.28;;;;;;;8.39;100.00;102632.19;6151246;23;20124;-90
2022/09/21 03:21:06;;;;;;;13.40;7.43;;;;;;;8.28;100.00;102626.81;6176029;23;20005;-90
2022/09/21 03:23:31;;;;;;;15.32;7.40;;;;;;;8.24;100.00;102627.63;6153026;23;20037;-90
2022/09/21 03:25:59;;;;;;;14.05;7.28;;;;;;;8.24;100.00;102636.25;6152722;23;20929;-91
2022/09/21 03:28:25;;;;;;;13.55;7.05;;;;;;;8.10;100.00;102619.69;6152888;23;20005;-90
2022/09/21 03:30:51;;;;;;;13.02;6.57;;;;;;;8.15;100.00;102638.69;6151330;23;20028;-90
2022/09/21 03:33:18;;;;;;;12.43;7.20;;;;;;;8.15;100.00;102646.44;6153057;23;20101;-90
2022/09/21 03:35:44;;;;;;;13.20;7.18;;;;;;;8.10;100.00;102642.94;6153371;23;20001;-91
2022/09/21 03:38:12;;;;;;;13.05;7.10;;;;;;;8.00;100.00;102633.28;6152899;23;20013;-94
2022/09/21 03:40:40;;;;;;;21.80;7.53;;;;;;;7.98;100.00;102631.53;6176805;23;20021;-93
2022/09/21 03:43:05;;;;;;;14.88;7.35;;;;;;;8.00;100.00;102635.00;6153102;23;19998;-93
2022/09/21 03:45:31;;;;;;;12.95;7.00;;;;;;;7.91;100.00;102633.16;6151346;23;20008;-93
2022/09/21 03:47:58;;;;;;;12.40;7.22;;;;;;;7.88;100.00;102633.09;6152121;23;20060;-93
2022/09/21 03:50:27;;;;;;;14.30;7.00;;;;;;;7.90;100.00;102647.78;6153289;23;20006;-93
2022/09/21 03:52:52;;;;;;;13.70;6.70;;;;;;;7.81;100.00;102632.13;6153312;23;20422;-93
2022/09/21 03:55:18;;;;;;;12.98;7.40;;;;;;;7.79;100.00;102641.56;6153021;23;20470;-94
2022/09/21 03:57:43;;;;;;;14.30;7.10;;;;;;;7.75;100.00;102633.75;6153533;23;20001;-92
2022/09/21 04:00:09;;;;;;;13.52;7.03;;;;;;;7.75;100.00;102646.66;6176290;23;20033;-94
2022/09/21 04:02:36;;;;;;;14.50;7.40;;;;;;;7.71;100.00;102645.72;6176588;23;20014;-93
2022/09/21 04:05:03;;;;;;;13.73;7.38;;;;;;;7.70;100.00;102644.00;6151161;23;20002;-93
2022/09/21 04:07:33;;;;;;;13.35;6.97;;;;;;;7.58;100.00;102632.56;6151002;23;20456;-92
2022/09/21 04:09:59;;;;;;;13.18;7.15;;;;;;;7.67;100.00;102650.81;6174680;23;20103;-93
2022/09/21 04:12:24;;;;;;;13.85;7.00;;;;;;;7.60;100.00;102636.06;6175789;23;20080;-95
2022/09/21 04:14:50;;;;;;;17.23;7.68;;;;;;;7.62;100.00;102639.53;6151571;23;20136;-92
2022/09/21 04:17:16;;;;;;;14.30;7.45;;;;;;;7.65;100.00;102648.19;6176728;23;20002;-94
2022/09/21 04:19:43;;;;;;;13.13;7.25;;;;;;;7.62;100.00;102647.28;6153139;23;20419;-93
2022/09/21 04:22:12;;;;;;;12.20;7.03;;;;;;;7.63;100.00;102649.03;6151626;23;20505;-93
2022/09/21 04:24:40;;;;;;;13.65;7.20;;;;;;;7.59;100.00;102649.78;6151745;23;20017;-93
2022/09/21 04:27:07;;;;;;;16.85;7.45;;;;;;;7.42;100.00;102629.75;6176350;23;20005;-92
2022/09/21 04:29:33;;;;;;;11.73;7.15;;;;;;;7.50;100.00;102642.78;6150543;23;20008;-93
2022/09/21 04:31:59;;;;;;;16.08;7.93;;;;;;;7.51;100.00;102652.22;6152877;23;20002;-93
2022/09/21 04:34:24;;;;;;;14.23;7.43;;;;;;;7.51;100.00;102658.28;6176022;23;20010;-93
2022/09/21 04:36:53;;;;;;;13.10;7.45;;;;;;;7.41;100.00;102648.63;6153062;23;20001;-93
2022/09/21 04:39:19;;;;;;;13.55;8.00;;;;;;;7.43;100.00;102657.28;6152704;23;20076;-94
2022/09/21 04:41:45;;;;;;;15.48;8.05;;;;;;;7.46;100.00;102659.03;6176076;23;20542;-93
2022/09/21 04:44:10;;;;;;;14.38;8.07;;;;;;;7.44;100.00;102664.16;6152265;23;20013;-93
2022/09/21 04:46:35;;;;;;;15.27;7.95;;;;;;;7.23;100.00;102626.81;6151499;23;20076;-93
2022/09/21 04:49:01;;;;;;;14.45;8.02;;;;;;;7.33;100.00;102655.38;6175890;23;20084;-93
2022/09/21 04:51:27;;;;;;;13.85;7.68;;;;;;;7.33;100.00;102655.38;6153192;23;20006;-93
2022/09/21 04:53:52;;;;;;;16.60;8.30;;;;;;;7.24;100.00;102650.03;6151209;23;20021;-92
2022/09/21 04:56:18;;;;;;;16.67;8.48;;;;;;;7.31;100.00;102661.31;6175835;23;20016;-94
2022/09/21 04:58:44;;;;;;;20.80;9.05;;;;;;;7.23;100.00;102647.44;6151496;23;20073;-94
2022/09/21 05:01:10;;;;;;;13.98;8.63;;;;;;;7.34;100.00;102670.00;6152376;23;20036;-94
2022/09/21 05:03:36;;;;;;;17.27;8.65;;;;;;;7.09;100.00;102636.84;6151803;23;20451;-93
2022/09/21 05:06:02;;;;;;;16.70;8.05;;;;;;;7.08;100.00;102643.72;6152525;23;20009;-92
2022/09/21 05:11:17;;;;;;;17.43;8.33;;;;;;;7.12;100.00;102660.09;6148592;23;20024;-94
2022/09/21 05:13:44;;;;;;;16.38;8.05;;;;;;;7.02;100.00;102642.72;6148789;23;20002;-92
2022/09/21 05:16:09;;;;;;;19.70;8.88;;;;;;;7.19;100.00;102679.16;6151316;23;20344;-93
2022/09/21 05:18:35;;;;;;;14.00;8.15;;;;;;;7.09;100.00;102671.25;6125090;23;20523;-93
2022/09/21 05:21:05;;;;;;;18.25;8.25;;;;;;;7.08;100.00;102666.06;6150754;23;20081;-93
2022/09/21 05:23:31;;;;;;;13.80;7.95;;;;;;;6.95;100.00;102652.06;6125878;23;20005;-92
2022/09/21 05:25:57;;;;;;;15.38;8.25;;;;;;;7.09;100.00;102688.44;6125159;23;20036;-94
2022/09/21 05:28:24;;;;;;;16.90;8.35;;;;;;;6.96;100.00;102664.06;6148835;23;20005;-92
2022/09/21 05:31:16;;;;;;;18.42;8.98;;;;;;;6.95;100.00;102666.66;6151003;23;20040;-93
2022/09/21 05:33:49;;;;;;;15.85;8.43;;;;;;;7.00;100.00;102675.34;6151125;23;20009;-92
2022/09/21 05:36:51;;;;;;;13.07;7.88;;;;;;;7.05;100.00;102684.03;6149530;23;20031;-92
2022/09/21 05:39:17;;;;;;;15.88;8.23;;;;;;;6.85;100.00;102665.56;6149176;23;19994;-92
2022/09/21 05:41:43;;;;;;;13.77;8.25;;;;;;;6.90;100.00;102674.25;6125372;23;20001;-93
2022/09/21 05:44:13;;;;;;;15.85;8.88;;;;;;;6.88;100.00;102663.06;6149483;23;19998;-91
2022/09/21 05:46:49;;;;;;;17.95;8.68;;;;;;;6.93;100.00;102673.47;6150710;23;20005;-92
2022/09/21 05:49:36;;;;;;;16.52;8.77;;;;;;;7.08;100.00;102700.44;6124072;23;20013;-92
2022/09/21 05:52:12;;;;;;;16.13;8.32;;;;;;;6.91;100.00;102670.84;6124659;23;20009;-92
2022/09/21 05:54:50;;;;;;;16.00;8.55;;;;;;;7.07;100.00;102698.69;6148652;23;20512;-93
2022/09/21 05:57:39;;;;;;;15.20;8.18;;;;;;;7.08;100.00;102708.19;6151180;23;20386;-94
2022/09/21 06:00:15;;;;;;;15.48;8.63;;;;;;;7.09;100.00;102709.94;6150272;23;20005;-93
2022/09/21 06:02:57;;;;;;;14.85;8.52;;;;;;;7.13;100.00;102709.13;6149827;23;20005;-96
2022/09/21 06:05:23;;;;;;;16.90;8.82;;;;;;;7.12;100.00;102707.38;6126646;23;20010;-94
2022/09/21 06:07:49;;;;;;;17.40;8.85;;;;;;;7.02;100.00;102690.00;6127467;23;20009;-94
2022/09/21 06:10:15;;;;;;;15.85;8.93;;;;;;;7.20;100.00;102706.69;6125761;23;20052;-94
2022/09/21 06:12:43;;;;;;;14.68;8.77;;;;;;;7.08;100.00;102686.69;6151592;23;20020;-95
2022/09/21 06:15:12;;;;;;;15.48;8.20;;;;;;;7.27;100.00;102721.44;6126273;23;20080;-94
2022/09/21 06:17:41;;;;;;;14.85;8.52;;;;;;;7.30;100.00;102716.34;6123733;23;20013;-93
2022/09/21 06:20:10;;;;;;;16.67;8.57;;;;;;;7.36;100.00;102716.47;6148720;23;20080;-92
2022/09/21 06:22:35;;;;;;;13.88;7.78;;;;;;;7.24;100.00;102706.75;6126458;23;20410;-93
2022/09/21 06:25:01;;;;;;;14.45;8.00;;;;;;;7.31;100.00;102712.91;6150720;23;20434;-92
2022/09/21 06:27:27;;;;;;;10.93;7.55;;;;;;;7.29;100.00;102706.88;6153627;23;20005;-93
2022/09/21 06:29:53;;;;;;;15.48;7.95;;;;;;;7.41;100.00;102713.13;6126598;23;20013;-93
2022/09/21 06:32:18;;;;;;;16.23;8.02;;;;;;;7.35;100.00;102701.81;6127722;23;20040;-92
2022/09/21 06:34:44;;;;;;;14.95;8.20;;;;;;;7.50;100.00;102709.88;6151589;23;20009;-93
2022/09/21 06:37:12;;;;;;;16.52;8.50;;;;;;;7.48;100.00;102703.81;6126969;23;20012;-94
2022/09/21 06:39:41;;;;;;;16.70;8.60;;;;;;;7.48;100.00;102701.22;6151844;23;20391;-93
2022/09/21 06:42:06;;;;;;;17.63;8.23;;;;;;;7.61;100.00;102718.66;6151928;23;20435;-94
2022/09/21 06:44:32;;;;;;;17.63;8.00;;;;;;;7.47;100.00;102689.16;6152535;23;20002;-92
2022/09/21 06:46:59;;;;;;;14.88;8.52;;;;;;;7.55;100.00;102703.06;6153622;23;19997;-92
2022/09/21 06:49:27;;;;;;;15.20;8.50;;;;;;;7.68;100.00;102720.53;6126422;23;20005;-92
2022/09/21 06:51:57;;;;;;;19.80;9.35;;;;;;;7.61;100.00;102697.16;6126833;23;20067;-93
2022/09/21 06:54:25;;;;;;;19.98;9.18;;;;;;;7.64;100.00;102692.06;6126921;23;20013;-94
2022/09/21 06:56:53;;;;;;;17.40;9.23;;;;;;;7.82;100.00;102724.22;6153144;23;20017;-93
2022/09/21 06:59:21;;;;;;;17.35;9.75;;;;;;;7.72;100.00;102693.91;6150026;23;20056;-93
2022/09/21 07:01:49;;;;;;;16.35;9.75;;;;;;;7.88;100.00;102715.72;6151046;23;20021;-93
2022/09/21 07:04:15;;;;;;;17.08;9.27;;;;;;;7.93;100.00;102722.69;6151102;23;20009;-94
2022/09/21 07:06:44;;;;;;;18.30;9.43;;;;;;;7.81;100.00;102696.66;6151461;23;20084;-93
2022/09/21 07:09:09;;;;;;;19.70;9.90;;;;;;;7.93;100.00;102708.91;6150320;23;20428;-93
2022/09/21 07:11:35;;;;;;;20.73;10.27;;;;;;;7.88;100.00;102687.31;6151100;23;20009;-94
2022/09/21 07:14:00;;;;;;;19.75;9.73;;;;;;;8.02;100.00;102710.78;6151603;23;20461;-93
2022/09/21 07:16:26;;;;;;;22.55;10.68;;;;;;;8.16;100.00;102719.63;6152188;23;20005;-93
2022/09/21 07:18:54;;;;;;;23.75;11.63;;;;;;;8.11;100.00;102709.22;6127432;23;20001;-91
2022/09/21 07:21:21;;;;;;;22.02;10.93;;;;;;;8.24;100.00;102718.03;6151725;23;20029;-91
2022/09/21 07:23:46;;;;;;;18.88;10.68;;;;;;;8.27;100.00;102726.69;6153133;23;20056;-91
2022/09/21 07:26:12;;;;;;;23.05;11.50;;;;;;;8.23;100.00;102701.69;6151452;23;20001;-91
2022/09/21 07:28:38;;;;;;;23.60;11.20;;;;;;;8.28;100.00;102704.31;6126973;23;20001;-91
2022/09/21 07:31:08;;;;;;;25.63;11.38;;;;;;;8.35;100.00;102702.72;6126597;23;20063;-91
2022/09/21 07:33:34;;;;;;;28.60;11.63;;;;;;;8.44;100.00;102698.59;6153009;23;20002;-92
2022/09/21 07:36:02;;;;;;;23.90;12.35;;;;;;;8.50;100.00;102693.50;6151125;23;20014;-91
2022/09/21 07:38:28;;;;;;;20.58;11.27;;;;;;;8.65;100.00;102719.56;6153363;23;20080;-91
2022/09/21 07:40:53;;;;;;;20.38;11.02;;;;;;;8.55;100.00;102693.56;6151516;23;20304;-91
2022/09/21 07:43:19;;;;;;;22.92;11.10;;;;;;;8.73;100.00;102704.19;6126453;23;20005;-91
2022/09/21 07:45:57;;;;;;;23.55;11.55;;;;;;;8.83;100.00;102716.38;6151482;23;20060;-91
2022/09/21 07:48:25;;;;;;;21.33;12.18;;;;;;;8.90;100.00;102719.91;6152966;23;20455;-93
2022/09/21 07:50:56;;;;;;;25.40;12.60;;;;;;;8.84;100.00;102702.59;6152876;23;20052;-93
2022/09/21 07:53:24;;;;;;;25.08;11.82;;;;;;;8.88;100.00;102698.31;6127186;23;20005;-94
2022/09/21 07:55:50;;;;;;;25.45;12.10;;;;;;;8.89;100.00;102694.88;6153309;23;20015;-94
2022/09/21 08:01:05;;;;;;;27.13;12.87;;;;;;;9.25;100.00;102704.81;6153067;23;20016;-93
2022/09/21 08:03:30;;;;;;;21.75;12.10;;;;;;;9.35;100.00;102699.75;6128327;23;20009;-93
2022/09/21 08:06:01;;;;;;;24.15;12.40;;;;;;;9.45;100.00;102696.44;6154592;23;20012;-94
2022/09/21 08:08:26;;;;;;;27.40;11.32;;;;;;;9.58;100.00;102696.56;6126498;23;20024;-94
2022/09/21 08:10:53;;;;;;;23.38;11.68;;;;;;;9.73;100.00;102689.81;6136572;23;20096;-94
2022/09/21 08:13:18;;;;;;;23.85;12.32;;;;;;;9.98;100.00;102692.59;6175962;23;20013;-93
2022/09/21 08:15:46;;;;;;;22.65;11.80;;;;;;;10.32;100.00;102702.41;6151078;23;20005;-94
2022/09/21 08:18:11;;;;;;;23.90;13.93;;;;;;;10.71;100.00;102694.03;6151774;23;20006;-91
2022/09/21 08:20:37;;;;;;;22.27;13.25;;;;;;;11.06;100.00;102684.66;6152248;23;20029;-91
2022/09/21 08:23:03;;;;;;;19.08;11.27;;;;;;;11.44;100.00;102679.59;6176228;23;20069;-91
2022/09/21 08:25:33;;;;;;;23.05;11.55;;;;;;;11.82;100.00;102705.66;6150578;23;20010;-93
2022/09/21 08:28:01;;;;;;;21.30;11.77;;;;;;;11.86;100.00;102684.03;6175596;23;20405;-92
2022/09/21 08:30:30;;;;;;;18.30;10.00;;;;;;;11.99;100.00;102692.69;6152622;23;20344;-91
2022/09/21 08:33:02;;;;;;;16.25;8.98;;;;;;;12.14;100.00;102702.22;6153102;23;19997;-91
2022/09/21 08:35:28;;;;;;;16.33;8.70;;;;;;;12.29;100.00;102710.00;6150812;23;20056;-91
2022/09/21 08:37:53;;;;;;;16.02;8.43;;;;;;;12.28;100.00;102706.53;6152736;23;20002;-92
2022/09/21 08:40:22;;;;;;;15.55;7.07;;;;;;;12.26;95.58;102707.41;6152491;23;20383;-92
2022/09/21 08:43:06;;;;;;;11.60;7.25;;;;;;;12.28;98.52;102698.72;6151151;23;20040;-92
2022/09/21 08:45:41;;;;;;;16.73;6.85;;;;;;;12.28;95.48;102698.72;6175736;23;20009;-90
2022/09/21 08:48:23;;;;;;;12.75;6.60;;;;;;;12.30;96.80;102685.72;6150824;23;20431;-91
2022/09/21 08:51:01;;;;;;;13.95;6.53;;;;;;;12.36;97.02;102705.66;6150944;23;20009;-94
2022/09/21 08:53:37;;;;;;;11.07;5.03;;;;;;;12.37;95.52;102703.06;6152730;23;20005;-96
2022/09/21 08:56:03;;;;;;;12.50;5.00;;;;;;;12.39;92.40;102698.72;6150871;23;20009;-94
2022/09/21 08:58:31;;;;;;;9.82;4.95;;;;;;;12.41;95.18;102694.41;6151210;23;20044;-94
2022/09/21 09:01:09;;;;;;;9.80;4.50;;;;;;;12.60;94.76;102716.03;6150569;23;19997;-94
2022/09/21 09:04:11;;;;;;;10.38;4.40;;;;;;;12.71;94.70;102726.41;6150607;23;20005;-94
2022/09/21 09:06:42;;;;;;;8.18;4.32;;;;;;;12.71;93.02;102709.06;6151081;23;20005;-95
2022/09/21 09:09:23;;;;;;;8.07;4.15;;;;;;;12.89;91.92;102721.16;6151012;23;20010;-94
2022/09/21 09:12:06;;;;;;;8.50;3.70;;;;;;;12.98;90.53;102727.19;6149351;23;20013;-94
2022/09/21 09:15:08;;;;;;;7.13;2.72;;;;;;;12.91;87.10;102704.66;6125314;23;20013;-93
2022/09/21 09:17:45;;;;;;;8.82;4.55;;;;;;;13.03;89.53;102708.97;6069837;23;20005;-95
2022/09/21 09:20:34;;;;;;;10.05;3.70;;;;;;;13.20;88.94;102732.34;6125209;23;20261;-92
2022/09/21 09:23:00;;;;;;;8.68;3.17;;;;;;;13.28;85.73;102730.59;6149386;23;20068;-92
2022/09/21 09:25:30;;;;;;;8.02;2.97;;;;;;;13.23;85.22;102707.19;6124922;23;20024;-92
2022/09/21 09:28:04;;;;;;;8.05;3.53;;;;;;;13.29;82.47;102714.09;6125336;23;20060;-91
2022/09/21 09:30:33;;;;;;;;;;;;;;;13.56;90.71;102731.31;6149872;23;20001;-92
2022/09/21 09:33:06;;;;;;;7.43;3.40;;;;;;;13.63;83.20;102733.88;6125031;23;19931;-92
2022/09/21 09:35:47;;;;;;;6.25;2.75;;;;;;;13.61;83.85;102708.69;6149699;23;20001;-92
2022/09/21 09:38:26;;;;;;;6.18;2.22;;;;;;;13.74;82.67;102729.44;6151371;23;20002;-91
2022/09/21 09:41:26;;;;;;;9.73;2.30;;;;;;;13.70;81.19;102714.72;6125192;23;20157;-92
2022/09/21 09:44:20;;;;;;;8.60;2.70;;;;;;;13.82;82.13;102735.50;6151246;23;20446;-91
2022/09/21 09:47:04;;;;;;;6.78;2.45;;;;;;;13.78;82.92;102710.28;6125206;23;19993;-92
2022/09/21 09:49:38;;;;;;;11.07;3.13;;;;;;;14.02;82.03;102737.06;6150738;23;20001;-92
2022/09/21 09:52:07;;;;;;;8.32;3.00;;;;;;;14.05;80.10;102721.41;6149630;23;20009;-92
2022/09/21 09:54:34;;;;;;;9.23;3.35;;;;;;;14.23;79.25;102732.56;6124995;23;20036;-92
2022/09/21 09:57:07;;;;;;;7.53;3.30;;;;;;;14.24;79.40;102713.44;6151693;23;20006;-92
2022/09/21 09:59:41;;;;;;;10.38;3.05;;;;;;;14.53;77.52;102733.19;6150753;23;20009;-91
2022/09/21 10:02:30;;;;;;;5.93;2.40;;;;;;;14.62;79.54;102712.22;6149955;23;20001;-92
2022/09/21 10:05:11;;;;;;;6.03;2.47;;;;;;;14.68;75.77;102706.91;6151664;23;20009;-91
2022/09/21 10:07:47;;;;;;;6.53;2.35;;;;;;;15.02;75.31;102731.75;6151467;23;20402;-91
2022/09/21 10:10:28;;;;;;;9.75;2.60;;;;;;;15.01;76.64;102731.81;6150551;23;20357;-91
2022/09/21 10:13:01;;;;;;;6.13;2.00;;;;;;;14.94;73.22;102725.75;6151196;23;20036;-92
2022/09/21 10:15:28;;;;;;;5.55;1.90;;;;;;;14.95;73.31;102714.44;6124637;23;19997;-92
2022/09/21 10:18:13;;;;;;;8.07;1.95;;;;;;;14.89;74.28;102705.81;6149478;23;20037;-92
2022/09/21 10:20:59;;;;;;;8.57;2.53;;;;;;;14.74;72.94;102701.63;6149627;23;20001;-92
2022/09/21 10:23:26;;;;;;;8.32;2.25;;;;;;;14.80;69.84;102704.19;6151009;23;20101;-92
2022/09/21 10:26:08;;;;;;;7.90;2.30;;;;;;;14.92;73.16;102705.78;6150949;23;19998;-91
2022/09/21 10:28:56;;;;;;;8.32;2.40;;;;;;;14.96;70.69;102705.72;6149682;23;20001;-94
2022/09/21 10:31:23;;;;;;;6.03;1.92;;;;;;;15.12;66.58;102695.97;6150114;23;20128;-95
2022/09/21 10:34:14;;;;;;;5.22;1.80;;;;;;;15.44;69.81;102721.66;6125385;23;20451;-94
2022/09/21 10:36:48;;;;;;;5.03;1.83;;;;;;;15.35;64.42;102716.56;6151665;23;20056;-94
2022/09/21 10:39:22;;;;;;;5.00;1.90;;;;;;;15.26;65.59;102694.03;6151593;23;20001;-94
2022/09/21 10:42:00;;;;;;;5.10;1.65;;;;;;;15.41;68.37;102692.97;6125817;23;19997;-95
2022/09/21 10:44:38;;;;;;;7.35;2.00;;;;;;;15.55;67.00;102701.50;6150285;23;20322;-95
2022/09/21 10:47:32;;;;;;;6.40;1.80;;;;;;;15.47;68.71;102685.03;6150814;23;20005;-94
2022/09/21 10:50:02;;;;;;;6.27;1.80;;;;;;;15.63;64.15;102704.84;6151691;23;20072;-94
2022/09/21 10:52:34;;;;;;;5.40;1.20;;;;;;;15.50;62.10;102682.34;6150085;23;20273;-94
2022/09/21 10:55:03;;;;;;;5.95;1.35;;;;;;;15.43;62.18;102675.50;6149856;23;20010;-94
2022/09/21 10:57:31;;;;;;;4.75;1.50;;;;;;;15.42;63.69;102677.22;6125426;23;20009;-94
2022/09/21 10:59:57;;;;;;;5.03;1.58;;;;;;;15.49;65.02;102685.00;6149884;23;20013;-94
2022/09/21 11:02:41;;;;;;;5.78;1.50;;;;;;;15.57;66.07;102711.91;6151434;23;20029;-94
2022/09/21 11:05:14;;;;;;;7.05;1.70;;;;;;;15.51;65.51;102702.38;6149490;23;20002;-94
2022/09/21 11:07:55;;;;;;;4.65;1.33;;;;;;;15.55;66.44;102708.47;6149927;23;20001;-95
2022/09/21 11:10:37;;;;;;;4.15;1.50;;;;;;;15.54;62.51;102705.00;6153085;23;20096;-95
2022/09/21 11:13:17;;;;;;;5.65;1.83;;;;;;;15.34;65.04;102678.25;6175905;23;20497;-95
2022/09/21 11:16:20;;;;;;;4.57;1.80;;;;;;;15.53;66.08;102703.28;6151863;23;20009;-94
2022/09/21 11:19:01;;;;;;;5.07;1.58;;;;;;;15.49;66.88;102679.78;6176402;23;20001;-95
2022/09/21 11:21:43;;;;;;;4.60;1.70;;;;;;;15.62;65.50;102697.91;6151530;23;20454;-94
2022/09/21 11:24:47;;;;;;;5.35;1.70;;;;;;;15.65;65.34;102694.38;6176722;23;20356;-94
2022/09/21 11:27:48;;;;;;;5.03;1.85;;;;;;;15.48;63.51;102697.22;6151157;23;20002;-96
2022/09/21 11:30:16;;;;;;;6.97;2.22;;;;;;;15.45;63.54;102688.53;6152892;23;20331;-94
2022/09/21 11:33:01;;;;;;;5.95;1.83;;;;;;;15.57;65.33;102694.47;6176076;23;20010;-94
2022/09/21 11:35:35;;;;;;;4.82;1.55;;;;;;;15.35;64.42;102672.97;6151465;23;20006;-95
2022/09/21 11:38:31;;;;;;;6.65;1.48;;;;;;;15.47;64.11;102695.47;6151211;23;20418;-95
2022/09/21 11:41:18;;;;;;;2.70;1.38;;;;;;;15.41;64.49;102701.66;6151402;23;20080;-95
2022/09/21 11:44:11;;;;;;;5.28;1.48;;;;;;;15.50;63.42;102695.41;6152941;23;20482;-94